Latest Weather Observations for Meekatharra

IDW60801

Issued at 6:03 pm WST Sunday 6 September 2026 (issued every 10 minutes, with the page automatically refreshed every 10 minutes)

About weather observations | Map of weather stations | Latest weather observations for WA | Other Formats
Station Details ID: 007045 Name: MEEKATHARRA AIRPORT Lat: -26.61 Lon: 118.54 Height: 517.0 m
Data from the previous 72 hours. | See also: Recent months at Meekatharra
Date/Time
WST
Temp
°C
App
Temp
°C
Dew
Point
°C
Rel
Hum
%
Delta-T
°C
Wind Press
QNH
hPa
Press
MSL
hPa
Rain since
9am
mm
Dir  Spd
km/h
Gust
km/h
Spd
kts
Gust
kts
06/06:00pm 18.0 12.0 8.8 55 4.9 SSW 30 43 16 23 1016.8 1015.1 0.2
06/05:30pm 18.8 12.2 7.9 49 5.7 SSW 32 43 17 23 1016.0 1014.3 0.2
06/05:00pm 19.5 12.9 7.6 46 6.2 SSW 32 46 17 25 1015.4 1013.7 0.2
06/04:30pm 19.6 11.6 7.4 45 6.4 SSW 39 50 21 27 1015.1 1013.4 0.2
06/04:00pm 21.1 14.5 6.2 38 7.7 SSW 30 46 16 25 1014.7 1012.9 0.2
06/03:30pm 20.7 13.6 6.3 39 7.4 SSW 33 44 18 24 1014.6 1012.8 0.2
06/03:17pm 20.6 14.6 7.2 42 7.0 SSW 28 41 15 22 1014.6 1012.8 0.2
06/03:00pm 19.4 12.5 9.0 51 5.6 SSW 35 54 19 29 1014.5 1012.7 0.2
06/02:58pm 20.2 13.4 7.6 44 6.6 SSW 33 54 18 29 1014.2 1012.5 0.2
06/02:57pm 20.8 14.1 7.4 42 7.1 SSW 32 43 17 23 1014.2 1012.5 0.2
06/02:35pm 21.5 14.7 7.0 39 7.6 SW 32 50 17 27 1014.1 1012.4 0.2
06/02:30pm 21.1 14.2 6.6 39 7.5 SW 32 44 17 24 1014.2 1012.5 0.2
06/02:00pm 20.8 14.5 7.4 42 7.1 SSW 30 43 16 23 1014.1 1012.4 0.2
06/01:30pm 17.6 12.7 11.4 67 3.5 SSW 28 39 15 21 1014.3 1012.6 0.2
06/01:00pm 20.2 15.1 7.6 44 6.6 SSW 24 33 13 18 1014.3 1012.6 0.0
06/12:30pm 20.5 16.1 7.5 43 6.9 S 20 32 11 17 1014.8 1013.0 0.0
06/12:00pm 19.9 15.0 7.0 43 6.7 SW 22 32 12 17 1015.0 1013.2 0.0
06/11:30am 18.8 13.5 6.9 46 6.1 SSW 24 35 13 19 1015.4 1013.7 0.0
06/11:00am 19.1 14.5 8.1 49 5.8 SSW 22 32 12 17 1015.6 1013.9 0.0
06/10:30am 18.2 13.4 8.7 54 5.1 SW 24 35 13 19 1016.0 1014.3 0.0
06/10:00am 17.6 12.4 8.7 56 4.7 SW 26 35 14 19 1016.1 1014.4 0.0
06/09:30am 16.8 12.0 8.8 59 4.2 SW 24 32 13 17 1016.0 1014.3 0.0
06/09:00am 15.8 11.4 9.0 64 3.6 WSW 22 30 12 16 1016.0 1014.3 0.0
06/08:30am 15.0 11.4 10.4 74 2.5 WSW 20 26 11 14 1015.7 1014.0 0.0
06/08:00am 15.2 11.9 9.6 69 3.0 WSW 17 26 9 14 1015.5 1013.8 0.0
06/07:30am 14.1 10.7 9.1 72 2.6 W 17 24 9 13 1015.3 1013.6 0.0
06/07:00am 13.9 10.8 8.7 71 2.7 W 15 20 8 11 1015.3 1013.6 0.0
06/06:30am 13.2 10.4 8.7 74 2.3 W 13 17 7 9 1015.3 1013.6 0.0
06/06:00am 12.6 10.0 7.9 73 2.4 W 11 15 6 8 1014.9 1013.1 0.0
06/05:30am 13.1 10.6 8.0 71 2.6 W 11 17 6 9 1014.6 1012.8 0.0
06/05:00am 13.2 10.6 7.9 70 2.7 W 11 17 6 9 1014.2 1012.5 0.0
06/04:30am 13.0 10.8 7.7 70 2.7 WSW 9 11 5 6 1014.0 1012.3 0.0
06/04:00am 13.5 11.7 7.9 69 2.8 W 7 9 4 5 1013.7 1012.0 0.0
06/03:30am 14.2 12.0 7.9 66 3.2 W 9 15 5 8 1013.9 1012.2 0.0
06/03:00am 14.7 11.7 7.7 63 3.6 W 13 22 7 12 1014.6 1012.8 0.0
06/02:30am 15.0 11.6 7.5 61 3.8 W 15 22 8 12 1014.9 1013.1 0.0
06/02:00am 15.4 11.9 7.2 58 4.2 W 15 20 8 11 1015.0 1013.2 0.0
06/01:30am 15.8 12.1 6.5 54 4.7 W 15 22 8 12 1015.0 1013.2 0.0
06/01:00am 16.3 12.6 6.4 52 5.0 WSW 15 22 8 12 1015.0 1013.2 0.0
06/12:30am 16.9 12.8 6.4 50 5.3 W 17 24 9 13 1015.2 1013.5 0.0
06/12:00am 17.1 14.0 5.7 47 5.7 WSW 11 17 6 9 1015.1 1013.4 0.0
 
Date/Time
WST
Temp
°C
App
Temp
°C
Dew
Point
°C
Rel
Hum
%
Delta-T
°C
Wind Press
QNH
hPa
Press
MSL
hPa
Rain since
9am
mm
Dir  Spd
km/h
Gust
km/h
Spd
kts
Gust
kts
05/11:30pm 17.8 14.2 5.1 43 6.3 WSW 13 17 7 9 1015.1 1013.4 0.0
05/11:00pm 18.3 14.2 4.5 40 6.8 W 15 20 8 11 1015.4 1013.7 0.0
05/10:30pm 16.8 14.4 5.1 46 5.7 W 7 9 4 5 1015.4 1013.7 0.0
05/10:00pm 18.4 15.8 4.2 39 6.9 W 7 9 4 5 1015.7 1014.0 0.0
05/09:30pm 19.1 16.2 4.5 38 7.2 W 9 13 5 7 1016.0 1014.3 0.0
05/09:00pm 19.2 16.2 4.2 37 7.4 WSW 9 11 5 6 1015.9 1014.2 0.0
05/08:30pm 19.7 16.3 3.8 35 7.8 WSW 11 11 6 6 1015.9 1014.2 0.0
05/08:00pm 20.3 17.6 3.5 33 8.2 WSW 7 9 4 5 1015.7 1014.0 0.0
05/07:30pm 21.6 18.0 2.8 29 9.1 WSW 11 13 6 7 1015.9 1014.2 0.0
05/07:00pm 22.5 19.1 2.1 26 9.8 WSW 9 15 5 8 1015.9 1014.2 0.0
05/06:30pm 23.4 19.6 1.7 24 10.5 W 11 15 6 8 1016.0 1014.3 0.0
05/06:00pm 24.6 19.6 1.5 22 11.2 WNW 17 22 9 12 1015.8 1014.1 0.0
05/05:30pm 25.5 20.2 1.6 21 11.7 NW 19 28 10 15 1015.7 1014.0 0.0
05/05:00pm 26.2 20.8 1.5 20 12.1 NW 19 32 10 17 1015.8 1014.1 0.0
05/04:30pm 26.4 20.4 0.9 19 12.4 NW 22 37 12 20 1015.8 1014.1 0.0
05/04:00pm 26.6 20.2 1.1 19 12.4 NW 24 39 13 21 1015.9 1014.2 0.0
05/03:30pm 27.2 21.8 2.3 20 12.5 NW 20 32 11 17 1016.2 1014.5 0.0
05/03:00pm 27.0 21.5 2.1 20 12.4 NNW 20 30 11 16 1016.3 1014.6 0.0
05/02:30pm 26.8 20.6 2.0 20 12.3 NW 24 35 13 19 1016.8 1015.1 0.0
05/02:02pm 26.9 21.5 2.7 21 12.2 NW 20 32 11 17 1017.1 1015.4 0.0
05/02:00pm 26.7 21.0 2.6 21 12.1 NW 22 35 12 19 1017.1 1015.4 0.0
05/01:52pm 26.1 19.1 2.1 21 11.9 NNW 28 44 15 24 1017.3 1015.6 0.0
05/01:30pm 25.6 20.6 3.6 24 11.1 NNW 19 32 10 17 1017.7 1016.0 0.0
05/01:00pm 25.7 21.3 4.8 26 10.8 N 17 32 9 17 1018.2 1016.5 0.0
05/12:30pm 24.5 19.5 4.8 28 10.1 N 20 32 11 17 1019.1 1017.4 0.0
05/12:00pm 23.5 18.7 5.4 31 9.3 N 20 30 11 16 1019.7 1018.0 0.0
05/11:30am 23.5 19.4 6.3 33 9.0 N 17 28 9 15 1020.2 1018.6 0.0
05/11:00am 22.2 17.8 6.4 36 8.2 N 19 30 10 16 1020.9 1019.2 0.0
05/10:30am 22.0 18.4 6.7 37 8.0 N 15 24 8 13 1021.3 1019.6 0.0
05/10:00am 21.2 18.0 6.7 39 7.5 NE 13 19 7 10 1021.5 1019.8 0.0
05/09:30am 19.9 16.1 5.9 40 7.1 E 15 20 8 11 1021.7 1020.0 0.0
05/09:00am 19.3 15.5 5.7 41 6.9 ENE 15 20 8 11 1021.9 1020.3 0.0
05/08:30am 18.1 14.3 6.0 45 6.1 ENE 15 20 8 11 1021.9 1020.3 0.0
05/08:00am 16.9 13.2 6.1 49 5.4 E 15 20 8 11 1021.7 1020.0 0.0
05/07:30am 14.8 12.0 7.1 60 3.9 E 11 15 6 8 1021.5 1019.8 0.0
05/07:00am 13.4 11.6 7.0 65 3.2 ESE 6 7 3 4 1021.4 1019.7 0.0
05/06:30am 11.5 9.4 6.6 72 2.4 ESE 7 9 4 5 1021.2 1019.5 0.0
05/06:00am 11.2 9.3 6.7 74 2.2 SE 6 7 3 4 1021.3 1019.6 0.0
05/05:30am 11.8 9.3 6.7 71 2.5 SSE 9 9 5 5 1020.9 1019.2 0.0
05/05:00am 12.3 10.2 6.8 69 2.7 SSE 7 9 4 5 1020.7 1019.0 0.0
05/04:30am 12.8 10.4 6.8 67 3.0 SE 9 11 5 6 1020.4 1018.8 0.0
05/04:00am 12.8 10.7 6.8 67 3.0 SE 7 9 4 5 1020.3 1018.7 0.0
05/03:30am 13.2 10.8 7.0 66 3.1 SE 9 11 5 6 1020.3 1018.7 0.0
05/03:00am 13.4 11.0 7.0 65 3.2 SE 9 11 5 6 1020.4 1018.8 0.0
05/02:30am 13.9 11.5 7.2 64 3.4 SE 9 11 5 6 1020.8 1019.1 0.0
05/02:00am 14.7 11.9 7.0 60 3.9 SE 11 15 6 8 1020.8 1019.1 0.0
05/01:30am 14.5 12.2 7.3 62 3.6 SE 9 15 5 8 1021.2 1019.5 0.0
05/01:00am 14.8 12.5 7.4 61 3.7 SE 9 13 5 7 1021.5 1019.8 0.0
05/12:30am 15.1 12.8 7.4 60 3.9 SSE 9 11 5 6 1021.8 1020.2 0.0
05/12:00am 15.4 13.1 7.4 59 4.1 SSE 9 13 5 7 1021.9 1020.3 0.0
 
Date/Time
WST
Temp
°C
App
Temp
°C
Dew
Point
°C
Rel
Hum
%
Delta-T
°C
Wind Press
QNH
hPa
Press
MSL
hPa
Rain since
9am
mm
Dir  Spd
km/h
Gust
km/h
Spd
kts
Gust
kts
04/11:30pm 15.8 13.5 7.6 58 4.2 SSE 9 11 5 6 1022.0 1020.4 0.0
04/11:00pm 16.3 14.0 7.5 56 4.5 SE 9 13 5 7 1022.1 1020.5 0.0
04/10:30pm 17.0 14.7 7.6 54 4.9 SSE 9 13 5 7 1022.3 1020.7 0.0
04/10:00pm 17.3 15.0 7.4 52 5.1 SSE 9 11 5 6 1022.5 1020.9 0.0
04/09:30pm 18.2 15.2 7.6 50 5.5 S 13 19 7 10 1022.4 1020.8 0.0
04/09:00pm 18.8 15.4 7.6 48 5.8 S 15 20 8 11 1022.3 1020.7 0.0
04/08:30pm 19.2 15.7 7.3 46 6.2 SSW 15 20 8 11 1022.0 1020.4 0.0
04/08:00pm 19.7 16.6 7.4 45 6.4 SSW 13 19 7 10 1021.7 1020.0 0.0
04/07:30pm 20.4 17.3 7.4 43 6.8 SSW 13 17 7 9 1021.3 1019.6 0.0
04/07:00pm 21.0 17.2 7.6 42 7.1 SSW 17 20 9 11 1021.0 1019.3 0.0
04/06:30pm 21.4 18.1 6.5 38 7.7 SSW 13 19 7 10 1020.4 1018.8 0.0
04/06:00pm 21.8 19.0 6.9 38 7.8 SSW 11 20 6 11 1020.0 1018.3 0.0
04/05:30pm 22.5 19.4 7.1 37 8.2 SSW 13 17 7 9 1019.8 1018.1 0.0
04/05:00pm 22.6 18.7 7.2 37 8.2 SW 17 24 9 13 1019.4 1017.7 0.0
04/04:30pm 23.4 19.9 7.1 35 8.7 SSW 15 22 8 12 1019.4 1017.7 0.0
04/04:00pm 23.4 19.4 6.7 34 8.8 WSW 17 26 9 14 1019.2 1017.5 0.0
04/03:30pm 23.3 18.7 5.7 32 9.1 SW 19 28 10 15 1019.2 1017.5 0.0
04/03:00pm 22.8 18.9 7.0 36 8.3 SW 17 26 9 14 1019.2 1017.5 0.0
04/02:30pm 22.5 19.4 7.1 37 8.2 SW 13 20 7 11 1019.2 1017.5 0.0
04/02:00pm 23.4 19.2 7.5 36 8.5 SSW 19 26 10 14 1019.4 1017.7 0.0
04/01:30pm 22.0 17.9 6.3 36 8.2 SW 17 28 9 15 1019.5 1017.8 0.0
04/01:00pm 21.6 17.7 7.1 39 7.6 SSW 17 28 9 15 1019.7 1018.0 0.0
04/12:30pm 21.4 17.4 6.5 38 7.7 SSW 17 26 9 14 1019.8 1018.1 0.0
04/12:00pm 21.3 17.5 7.5 41 7.3 SW 17 26 9 14 1020.2 1018.6 0.0
04/11:30am 19.7 15.7 6.8 43 6.7 SW 17 26 9 14 1020.9 1019.2 0.0
04/11:00am 19.3 16.4 8.0 48 6.0 SSW 13 24 7 13 1021.1 1019.4 0.0
04/10:30am 18.8 15.1 7.9 49 5.7 SSE 17 26 9 14 1021.4 1019.7 0.0
04/10:00am 17.8 14.3 8.9 56 4.7 SSW 17 24 9 13 1021.8 1020.2 0.0
04/09:30am 16.9 12.6 9.3 61 4.1 SSW 22 32 12 17 1021.8 1020.2 0.0
04/09:00am 16.1 12.2 9.5 65 3.5 S 20 30 11 16 1021.8 1020.2 0.0
04/08:30am 15.2 10.9 9.3 68 3.1 S 22 30 12 16 1021.4 1019.7 0.0
04/08:00am 14.3 9.9 9.1 71 2.7 S 22 28 12 15 1021.0 1019.3 0.0
04/07:30am 13.2 8.6 8.1 71 2.6 S 22 30 12 16 1020.6 1018.9 0.0
04/07:00am 12.6 8.7 7.1 69 2.7 S 17 20 9 11 1019.9 1018.2 0.0
04/06:30am 11.9 7.8 6.4 69 2.7 SSW 17 22 9 12 1019.5 1017.8 0.0
04/06:00am 12.2 8.4 5.6 64 3.2 SSW 15 17 8 9 1019.4 1017.7 0.0
04/05:30am 12.5 8.6 5.4 62 3.4 SSW 15 19 8 10 1018.8 1017.1 0.0
04/05:00am 12.9 10.1 5.1 59 3.7 SSW 9 13 5 7 1018.2 1016.5 0.0
04/04:30am 13.4 10.2 5.1 57 4.0 SSW 11 13 6 7 1018.0 1016.3 0.0
04/04:00am 13.9 10.3 5.0 55 4.3 S 13 17 7 9 1017.4 1015.7 0.0
04/03:30am 14.2 9.8 5.0 54 4.4 SSW 17 22 9 12 1017.3 1015.6 0.0
04/03:00am 14.6 10.6 5.1 53 4.6 SSW 15 20 8 11 1017.4 1015.7 0.0
04/02:30am 14.8 10.8 5.1 52 4.7 SSW 15 19 8 10 1017.3 1015.6 0.0
04/02:00am 14.8 11.4 5.9 55 4.4 SSW 13 15 7 8 1017.1 1015.4 0.0
04/01:30am 15.2 11.8 6.0 54 4.5 SSW 13 17 7 9 1017.0 1015.3 0.0
04/01:00am 15.6 12.6 6.1 53 4.7 SSW 11 13 6 7 1017.2 1015.5 0.0
04/12:30am 16.9 13.1 5.8 48 5.5 SSW 15 17 8 9 1017.2 1015.5 0.0
04/12:00am 16.0 13.5 6.4 53 4.8 SW 9 11 5 6 1017.4 1015.7 0.0
 
Date/Time
WST
Temp
°C
App
Temp
°C
Dew
Point
°C
Rel
Hum
%
Delta-T
°C
Wind Press
QNH
hPa
Press
MSL
hPa
Rain since
9am
mm
Dir  Spd
km/h
Gust
km/h
Spd
kts
Gust
kts
03/11:30pm 16.4 13.8 6.2 51 5.1 SW 9 9 5 5 1017.4 1015.7 0.0
03/11:00pm 16.6 14.0 6.1 50 5.2 SW 9 11 5 6 1017.5 1015.8 0.0
03/10:30pm 17.3 14.7 6.2 48 5.6 SW 9 9 5 5 1017.6 1015.9 0.0
03/10:00pm 18.0 15.4 5.9 45 6.1 SW 9 11 5 6 1017.8 1016.1 0.0
03/09:30pm 18.8 16.1 5.6 42 6.6 SW 9 15 5 8 1017.9 1016.2 0.0
03/09:00pm 19.0 16.3 5.8 42 6.7 SW 9 11 5 6 1017.7 1016.0 0.0
03/08:30pm 20.2 17.1 5.4 38 7.5 SW 11 13 6 7 1017.6 1015.9 0.0
03/08:00pm 21.1 18.0 5.5 36 7.9 WSW 11 15 6 8 1017.5 1015.8 0.0
03/07:30pm 21.6 18.0 5.1 34 8.4 WSW 13 17 7 9 1017.4 1015.7 0.0
03/07:00pm 22.1 18.5 5.1 33 8.6 W 13 17 7 9 1017.1 1015.4 0.0
03/06:30pm 22.8 18.8 4.8 31 9.2 WSW 15 22 8 12 1016.9 1015.2 0.0

Other formats

Comma delimited format used in spreadsheet applications
http://www.bom.gov.au/fwo/IDW60801/IDW60801.94430.axf

JavaScript Object Notation format (JSON) in row-major order
http://www.bom.gov.au/fwo/IDW60801/IDW60801.94430.json

Data quality

Most of these data are generated automatically and are frequently updated. Quality checks on data are not normally performed. It is possible for incorrect values to appear. Refer to information at About Latest Weather Observations and please check the disclaimer before using these data.